Time;durP1;ratioP1;P1;durP2;ratioP2;P2;SDS_P1;SDS_P2;PMS_P1;PMS_P2;Temp;Humidity;BMP_temperature;BMP_pressure;BME280_temperature;BME280_humidity;BME280_pressure;Samples;Min_cycle;Max_cycle;Signal;HPM_P1;HPM_P2
2023/09/29 00:00:53;;;;;;;19.23;9.57;;;10.50;99.90;;;;;;25591228;23;20314;-53
2023/09/29 00:10:55;;;;;;;10.73;8.00;;;10.40;99.90;;;;;;25590973;23;20009;-52
2023/09/29 00:20:57;;;;;;;22.38;12.40;;;10.40;99.90;;;;;;25590917;23;20011;-57
2023/09/29 00:30:59;;;;;;;15.93;9.38;;;10.20;99.90;;;;;;25564357;23;20013;-52
2023/09/29 00:41:01;;;;;;;12.02;8.52;;;10.10;99.90;;;;;;25590075;23;20337;-59
2023/09/29 00:51:03;;;;;;;16.23;8.80;;;10.30;99.90;;;;;;25590051;23;20001;-50
2023/09/29 01:01:07;;;;;;;15.93;8.02;;;10.20;99.90;;;;;;25589587;23;20005;-50
2023/09/29 01:11:09;;;;;;;10.82;7.05;;;9.90;99.90;;;;;;25589072;23;20032;-59
2023/09/29 01:21:11;;;;;;;9.07;7.20;;;10.10;99.90;;;;;;25588982;23;20447;-51
2023/09/29 01:31:13;;;;;;;9.60;7.40;;;10.30;99.90;;;;;;25589655;23;20017;-50
2023/09/29 01:41:14;;;;;;;15.85;9.70;;;10.10;99.90;;;;;;25562695;23;20008;-54
2023/09/29 01:51:17;;;;;;;14.02;8.70;;;10.00;99.90;;;;;;25588480;23;20079;-51
2023/09/29 02:01:19;;;;;;;17.33;10.40;;;9.80;99.90;;;;;;25588543;23;20503;-60
2023/09/29 02:11:21;;;;;;;12.48;8.57;;;9.80;99.90;;;;;;25561661;23;20017;-59
2023/09/29 02:21:23;;;;;;;11.25;7.68;;;9.80;99.90;;;;;;25588453;23;20016;-53
2023/09/29 02:31:26;;;;;;;9.80;7.68;;;9.70;99.90;;;;;;25594953;23;20013;-59
2023/09/29 02:41:29;;;;;;;12.93;7.75;;;10.00;99.90;;;;;;25593491;23;20496;-59
2023/09/29 02:51:31;;;;;;;15.90;8.32;;;10.00;99.90;;;;;;25594101;23;20009;-58
2023/09/29 03:01:34;;;;;;;14.23;9.02;;;10.00;99.90;;;;;;25594100;23;20380;-53
2023/09/29 03:11:37;;;;;;;10.50;7.50;;;10.00;99.90;;;;;;25567062;23;20376;-59
2023/09/29 03:21:38;;;;;;;13.27;7.53;;;10.00;99.90;;;;;;25591202;23;20012;-59
2023/09/29 03:31:40;;;;;;;16.58;10.07;;;9.90;99.90;;;;;;25592469;23;20364;-58
2023/09/29 03:41:42;;;;;;;10.32;6.15;;;9.80;99.90;;;;;;25591465;23;20013;-59
2023/09/29 03:51:44;;;;;;;15.70;8.18;;;9.80;99.90;;;;;;25591110;23;20005;-59
2023/09/29 04:01:47;;;;;;;13.18;7.13;;;9.60;99.90;;;;;;25590810;23;20005;-51
2023/09/29 04:11:49;;;;;;;11.30;6.75;;;9.40;99.90;;;;;;25590272;23;20019;-58
2023/09/29 04:21:51;;;;;;;9.98;6.50;;;9.20;99.90;;;;;;25589950;23;20008;-53
2023/09/29 04:31:52;;;;;;;10.75;6.13;;;9.10;99.90;;;;;;25590335;23;20013;-59
2023/09/29 04:41:54;;;;;;;15.30;8.40;;;9.10;99.90;;;;;;25590965;23;20013;-50
2023/09/29 04:51:56;;;;;;;10.48;6.32;;;9.30;99.90;;;;;;25588727;23;20009;-52
2023/09/29 05:01:57;;;;;;;15.60;10.27;;;9.40;99.90;;;;;;25589015;23;20089;-49
2023/09/29 05:11:59;;;;;;;12.18;8.50;;;9.20;99.90;;;;;;25588639;23;20001;-59
2023/09/29 05:22:01;;;;;;;14.63;9.20;;;9.20;99.90;;;;;;25588373;23;20012;-59
2023/09/29 05:32:02;;;;;;;26.77;9.75;;;9.40;99.90;;;;;;25588073;23;20067;-59
2023/09/29 05:42:04;;;;;;;14.30;7.78;;;9.50;99.90;;;;;;25588073;23;20001;-48
2023/09/29 05:52:06;;;;;;;14.85;8.63;;;9.80;99.90;;;;;;25561491;23;20009;-59
2023/09/29 06:02:08;;;;;;;12.52;8.00;;;10.00;99.90;;;;;;25591163;23;20009;-49
2023/09/29 06:12:10;;;;;;;10.55;8.15;;;10.30;99.90;;;;;;25593626;23;20370;-51
2023/09/29 06:22:12;;;;;;;13.15;8.13;;;10.30;99.90;;;;;;25594959;23;20491;-52
2023/09/29 06:32:13;;;;;;;16.33;9.68;;;10.30;99.90;;;;;;25594339;23;20013;-59
2023/09/29 06:42:15;;;;;;;17.70;10.82;;;10.40;99.90;;;;;;25593248;23;20009;-58
2023/09/29 06:52:17;;;;;;;19.15;10.30;;;10.60;99.90;;;;;;25593683;23;20329;-59
2023/09/29 07:02:19;;;;;;;16.67;9.18;;;11.10;99.90;;;;;;25567155;23;20009;-59
2023/09/29 07:12:22;;;;;;;11.95;8.48;;;11.80;99.90;;;;;;25593476;23;20452;-59
2023/09/29 07:22:24;;;;;;;11.60;7.95;;;12.80;99.90;;;;;;25592578;23;20013;-54
2023/09/29 07:32:26;;;;;;;13.50;7.18;;;13.90;99.90;;;;;;25591845;23;20009;-52
2023/09/29 07:42:27;;;;;;;12.27;7.22;;;15.20;99.90;;;;;;25592341;23;20017;-53
2023/09/29 07:52:29;;;;;;;12.40;6.93;;;16.30;99.90;;;;;;25591335;23;20056;-53
2023/09/29 08:02:34;;;;;;;7.85;6.25;;;17.30;99.90;;;;;;25590788;23;20005;-61
2023/09/29 08:12:36;;;;;;;9.40;7.07;;;18.20;99.90;;;;;;25590491;23;20005;-61
2023/09/29 08:22:38;;;;;;;9.25;6.78;;;18.70;99.90;;;;;;25589538;23;20016;-61
2023/09/29 08:32:42;;;;;;;15.57;6.72;;;19.10;99.90;;;;;;25589702;23;20013;-61
2023/09/29 08:42:51;;;;;;;10.98;6.90;;;19.40;99.90;;;;;;25589289;23;20015;-54
2023/09/29 08:52:53;;;;;;;9.83;6.43;;;19.50;99.90;;;;;;25589030;23;20013;-61
2023/09/29 09:02:58;;;;;;;12.18;6.68;;;19.90;99.90;;;;;;25589018;23;20009;-61
2023/09/29 09:13:00;;;;;;;6.45;5.30;;;20.10;99.90;;;;;;25588267;23;20009;-61
2023/09/29 09:23:03;;;;;;;7.70;5.75;;;20.50;99.90;;;;;;25588329;23;20013;-62
2023/09/29 09:33:05;;;;;;;10.07;5.93;;;20.90;99.90;;;;;;25591959;23;20014;-62
2023/09/29 09:43:09;;;;;;;8.90;5.95;;;21.20;99.90;;;;;;25595760;23;20060;-62
2023/09/29 09:53:13;;;;;;;9.27;5.80;;;21.20;99.20;;;;;;25595976;23;20009;-62
2023/09/29 10:03:16;;;;;;;9.25;6.20;;;21.20;99.90;;;;;;25595856;23;20005;-61
2023/09/29 10:13:18;;;;;;;11.48;6.00;;;21.30;99.90;;;;;;25595148;23;20005;-61
2023/09/29 10:23:19;;;;;;;10.70;6.38;;;21.70;99.90;;;;;;25594825;23;20009;-61
2023/09/29 10:33:21;;;;;;;9.88;6.53;;;22.20;99.90;;;;;;25594163;23;20004;-62
2023/09/29 10:43:23;;;;;;;12.30;6.70;;;22.00;99.90;;;;;;25593855;23;20004;-52
2023/09/29 10:53:36;;;;;;;9.75;6.50;;;21.90;99.90;;;;;;25593736;23;20009;-60
2023/09/29 11:03:38;;;;;;;11.52;6.45;;;21.50;99.90;;;;;;25634738;23;20005;-60
2023/09/29 11:13:40;;;;;;;10.23;7.30;;;21.70;99.90;;;;;;25592797;23;20005;-61
2023/09/29 11:23:45;;;;;;;10.57;6.53;;;22.00;99.90;;;;;;25592432;23;20514;-52
2023/09/29 11:33:46;;;;;;;11.60;7.00;;;22.00;99.90;;;;;;25591615;23;20064;-61
2023/09/29 11:43:49;;;;;;;8.48;7.07;;;21.80;99.90;;;;;;25591829;23;20503;-62
2023/09/29 11:53:51;;;;;;;9.45;7.82;;;21.90;99.90;;;;;;25591044;23;20063;-62
2023/09/29 12:03:53;;;;;;;11.18;7.35;;;21.90;99.90;;;;;;25588784;23;20013;-62
2023/09/29 12:13:55;;;;;;;9.55;6.30;;;21.90;99.90;;;;;;25592057;23;20385;-62
2023/09/29 12:23:56;;;;;;;12.75;6.43;;;22.10;99.90;;;;;;25590457;23;20429;-63
2023/09/29 12:33:58;;;;;;;11.10;6.03;;;22.40;99.90;;;;;;25590686;23;20013;-63
2023/09/29 12:44:00;;;;;;;11.27;6.22;;;22.30;99.90;;;;;;25588338;23;20514;-52
2023/09/29 12:54:02;;;;;;;9.30;5.88;;;22.30;99.90;;;;;;25589000;23;20344;-63
2023/09/29 13:04:04;;;;;;;9.77;6.18;;;22.10;99.90;;;;;;25589154;23;20063;-63
2023/09/29 13:14:06;;;;;;;9.80;7.00;;;21.80;99.90;;;;;;25587801;23;20005;-63
2023/09/29 13:24:09;;;;;;;11.27;6.38;;;21.60;99.90;;;;;;25588635;23;20344;-63
2023/09/29 13:34:11;;;;;;;12.57;7.10;;;21.40;99.90;;;;;;25587599;23;20013;-62
2023/09/29 13:44:14;;;;;;;8.02;6.15;;;20.90;99.90;;;;;;25587891;23;20329;-63
2023/09/29 13:54:16;;;;;;;9.35;6.78;;;20.30;99.90;;;;;;25587830;23;20020;-63
2023/09/29 14:04:17;;;;;;;11.27;7.18;;;19.90;99.90;;;;;;25587763;23;20380;-63
2023/09/29 14:14:19;;;;;;;12.02;8.00;;;19.50;99.90;;;;;;25560672;23;20013;-62
2023/09/29 14:24:21;;;;;;;10.55;8.25;;;19.30;99.90;;;;;;25592801;23;20009;-61
2023/09/29 14:34:23;;;;;;;13.20;8.57;;;18.90;99.90;;;;;;25594239;23;20013;-61
2023/09/29 14:44:25;;;;;;;13.38;8.73;;;18.60;99.90;;;;;;25593835;23;20032;-55
2023/09/29 14:54:27;;;;;;;12.48;8.77;;;18.20;99.90;;;;;;25593730;23;20321;-61
2023/09/29 15:04:28;;;;;;;14.43;8.98;;;17.70;99.90;;;;;;25593903;23;20515;-61
2023/09/29 15:14:30;;;;;;;11.73;8.63;;;17.40;99.90;;;;;;25593078;23;20371;-61
2023/09/29 15:24:32;;;;;;;12.57;9.10;;;17.00;99.90;;;;;;25592634;23;20067;-52
2023/09/29 15:34:34;;;;;;;14.70;9.50;;;16.70;99.90;;;;;;25591959;23;20083;-61
2023/09/29 15:44:37;;;;;;;10.38;9.20;;;16.40;99.90;;;;;;25565781;23;20009;-60
2023/09/29 15:54:38;;;;;;;14.25;10.07;;;15.70;99.90;;;;;;25591412;23;20009;-60
2023/09/29 16:04:44;;;;;;;13.65;9.48;;;15.00;99.90;;;;;;25591373;23;20004;-60
2023/09/29 16:14:46;;;;;;;13.35;9.20;;;14.40;99.90;;;;;;25631581;23;20004;-59
2023/09/29 16:24:48;;;;;;;17.88;10.13;;;13.80;99.90;;;;;;25590290;23;20009;-51
2023/09/29 16:34:51;;;;;;;16.50;11.05;;;13.60;99.90;;;;;;25604224;23;20452;-59
2023/09/29 16:44:54;;;;;;;15.52;11.27;;;13.30;99.90;;;;;;25590385;23;20009;-59
2023/09/29 16:54:56;;;;;;;17.35;12.10;;;13.00;99.90;;;;;;25589888;23;20048;-59
2023/09/29 17:05:00;;;;;;;16.00;12.68;;;12.80;99.90;;;;;;25589587;23;20012;-59
2023/09/29 17:15:04;;;;;;;17.55;12.88;;;12.60;99.90;;;;;;25589136;23;20079;-60
2023/09/29 17:25:09;;;;;;;17.38;13.10;;;12.30;99.90;;;;;;25589005;23;20065;-51
2023/09/29 17:35:11;;;;;;;16.23;13.45;;;12.20;99.90;;;;;;25588762;23;20028;-59
2023/09/29 17:45:13;;;;;;;16.75;11.85;;;12.00;99.90;;;;;;25588737;23;20156;-60
2023/09/29 17:55:15;;;;;;;18.02;12.38;;;11.90;99.90;;;;;;25591389;23;20309;-52
2023/09/29 18:05:16;;;;;;;20.52;12.63;;;11.90;99.90;;;;;;25596492;23;20005;-59
2023/09/29 18:15:18;;;;;;;17.65;11.75;;;11.70;99.90;;;;;;25596163;23;20310;-59
2023/09/29 18:25:20;;;;;;;18.75;12.70;;;11.60;99.90;;;;;;25595662;23;20012;-59
2023/09/29 18:35:22;;;;;;;16.05;12.38;;;11.60;99.90;;;;;;25594146;23;20013;-60
2023/09/29 18:45:23;;;;;;;14.52;10.10;;;11.50;99.90;;;;;;25592716;23;20389;-60
2023/09/29 18:55:25;;;;;;;12.43;10.40;;;11.60;99.90;;;;;;25565773;23;20380;-59
2023/09/29 19:05:31;;;;;;;19.58;12.75;;;11.80;99.90;;;;;;25564604;23;20384;-59
2023/09/29 19:15:33;;;;;;;12.50;8.55;;;11.70;99.90;;;;;;25634601;23;20282;-59
2023/09/29 19:25:35;;;;;;;17.35;11.90;;;11.60;99.90;;;;;;25592996;23;20008;-59
2023/09/29 19:35:37;;;;;;;15.40;9.75;;;11.50;99.90;;;;;;25592035;23;20337;-54
2023/09/29 19:45:38;;;;;;;12.55;9.93;;;11.50;99.90;;;;;;25591449;23;20005;-59
2023/09/29 19:55:47;;;;;;;11.13;7.80;;;11.50;99.90;;;;;;25590755;23;20017;-59
2023/09/29 20:05:49;;;;;;;12.32;10.20;;;11.60;99.90;;;;;;25632112;23;20084;-49
2023/09/29 20:15:51;;;;;;;19.27;9.80;;;11.60;99.90;;;;;;25590288;23;20367;-59
2023/09/29 20:25:53;;;;;;;14.45;8.77;;;11.60;99.90;;;;;;25590021;23;20008;-59
2023/09/29 20:35:56;;;;;;;11.93;6.75;;;11.60;99.90;;;;;;25589683;23;20437;-50
2023/09/29 20:45:58;;;;;;;10.75;7.45;;;12.00;99.90;;;;;;25589302;23;20081;-52
2023/09/29 20:56:00;;;;;;;8.75;6.85;;;12.00;99.90;;;;;;25588318;23;20072;-59
2023/09/29 21:06:03;;;;;;;13.00;6.95;;;11.60;99.90;;;;;;25588654;23;20008;-58
2023/09/29 21:16:06;;;;;;;11.15;7.57;;;11.50;99.90;;;;;;25588281;23;20001;-51
2023/09/29 21:26:14;;;;;;;15.80;7.80;;;11.60;99.90;;;;;;25588071;23;20674;-53
2023/09/29 21:36:20;;;;;;;14.88;9.20;;;11.50;99.90;;;;;;25596753;23;20009;-59
2023/09/29 21:46:22;;;;;;;10.50;7.57;;;11.50;99.90;;;;;;25638127;23;20009;-50
2023/09/29 21:56:24;;;;;;;10.65;8.10;;;11.40;99.90;;;;;;25596815;23;20531;-48
2023/09/29 22:06:26;;;;;;;14.15;8.27;;;11.60;99.90;;;;;;25596243;23;20052;-59
2023/09/29 22:16:27;;;;;;;12.60;9.05;;;11.50;99.90;;;;;;25596470;23;20440;-59
2023/09/29 22:26:29;;;;;;;9.85;7.45;;;11.60;99.90;;;;;;25595710;23;20009;-59
2023/09/29 22:36:31;;;;;;;11.82;8.23;;;11.60;99.90;;;;;;25594616;23;20163;-52
2023/09/29 22:46:33;;;;;;;8.93;6.63;;;11.50;99.90;;;;;;25594576;23;20048;-53
2023/09/29 22:56:34;;;;;;;8.15;4.93;;;11.80;99.90;;;;;;25594445;23;20087;-51
2023/09/29 23:06:37;;;;;;;11.20;4.88;;;11.70;99.90;;;;;;25593796;23;20005;-58
2023/09/29 23:16:38;;;;;;;6.05;4.32;;;11.60;99.90;;;;;;25593950;23;20001;-53
2023/09/29 23:26:40;;;;;;;8.98;5.60;;;11.60;99.90;;;;;;25567059;23;20005;-53
2023/09/29 23:36:43;;;;;;;9.13;4.95;;;11.60;99.90;;;;;;25592638;23;20005;-53
2023/09/29 23:46:44;;;;;;;10.77;6.57;;;11.60;99.90;;;;;;25592395;23;20087;-60
2023/09/29 23:56:46;;;;;;;6.90;4.10;;;11.60;99.90;;;;;;25592057;23;20464;-51
